Charlottetown, Canada
Current Conditions -  °F | °C
As of 3:00 AM on Sunday 23 Nov 2014 (Local Time) from CYYG Reporting Station
Light Snow Light Snow  
Wind Chill: 23°   Ceiling: 500
Heat Index: 32°   Visibility: 2mi
Dew Point: 32°   Wind: 12mph
Humidity: 100%   Direction: 250°WSW
Pressure: 29.8"   Gusts: 21mph
Location:  46.24°N, 63.13°W
Report Text: CYYG 230700Z 25010G18KT 2SM -SN OVC005 00/M00 A2980 RMK SN4SF4 SNW WET SLP095
Loading
Personal Weather Stations






























Interactive Weather Map New forecast layout! Learn more

10-Day Weather Forecast

Advertisements
Track Severe Weather on mobile